Chiefland, FL

7:51 PM EDT on October 30, 2014 (GMT -0400)
Chiefland | Change Station
CLOSE
Current Station
Personal Weather Station
Location: Chiefland, FL
Elevation: 34 ft
Nearby Weather Stations

Elev 34 ft 29.48 °N, 82.86 °W | Updated 54 seconds ago

Partly Cloudy
Partly Cloudy
65.5 °F
Feels Like 65.5 °F
N
0.0
Wind Variable Wind from WSW
Gusts 0.0 mph

Today
High -- | Low -- °F
--% Chance of Precip.
Yesterday
High -- | Low -- °F
Precip. -- in
7:43 AM 6:46 PM
Waxing Crescent, 49% visible
Pressure 29.91 in
Visibility 5.0 miles
Clouds Mostly Cloudy 2500 ft
Overcast 6000 ft
Dew Point 65 °F
Humidity 97%
Rainfall 1.66 in
Snow Depth Not available.
UV 0 out of 12
Pollen 3.80 out of 12
Air Quality Not available.
Flu Activity Not available.
SPECI KGNV 302341Z 00000KT 5SM -RA BKN025 OVC060 19/18 A2991 RMK AO2 LTG DSNT E-S TSE00 P0003 T01890178

More Conditions Fewer Conditions

Pressure 29.91 in
Visibility 5.0 miles
Clouds Mostly Cloudy 2500 ft
Overcast 6000 ft
Dew Point 65 °F
Humidity 97%
Rainfall 1.66 in
Snow Depth Not available.
UV 0 out of 12
Pollen 3.80 out of 12
Air Quality Not available.
Flu Activity Not available.
SPECI KGNV 302341Z 00000KT 5SM -RA BKN025 OVC060 19/18 A2991 RMK AO2 LTG DSNT E-S TSE00 P0003 T01890178

More Conditions Fewer Conditions

10-Day Weather Forecast

Almanac

Astronomy

Oct. 30, 2014 Rise Set
Actual Time
Civil Twilight
Nautical Twilight
Astronomical Twilight
Moon
Length of Visible Light
Length of Day
Tomorrow will be .
, % of the Moon is Illuminated

Today's Extremes

State Highs State Lows

Community

WunderPhotos

Upload Photos

1,766,496 photos uploaded!

WunderBlogs® & News

Nearby

Air Quality

  Air Quality AQ Index Pollutant
Not available.

Snow Depth

Station Depth Elevation

Earthquake Activity

City Distance Mag. Time & Date
Minimum magnitude displayed is 2.5.

Coastal Water Temperatures

Place Temperature

Nearby Weather Stations